Time;durP1;ratioP1;P1;durP2;ratioP2;P2;SDS_P1;SDS_P2;PMS_P1;PMS_P2;Temp;Humidity;BMP_temperature;BMP_pressure;BME280_temperature;BME280_humidity;BME280_pressure;Samples;Min_cycle;Max_cycle;Signal;HPM_P1;HPM_P2
2022/10/05 00:02:14;;;;;;;;;;;;;;;;;;5029864;28;19932;-56
2022/10/05 00:04:40;;;;;;;;;;;;;;;;;;5015240;28;19932;-58
2022/10/05 00:07:09;;;;;;;;;;;;;;;;;;5015230;28;19925;-56
2022/10/05 00:09:35;;;;;;;;;;;;;;;;;;5014887;28;19979;-59
2022/10/05 00:12:09;;;;;;;;;;;;;;;;;;5015212;28;20390;-59
2022/10/05 00:14:37;;;;;;;;;;;;;;;;;;5014985;28;19925;-59
2022/10/05 00:17:04;;;;;;;;;;;;;;;;;;5014990;28;19926;-61
2022/10/05 00:19:32;;;;;;;;;;;;;;;;;;5015201;28;19979;-61
2022/10/05 00:21:59;;;;;;;;;;;;;;;;;;5014754;28;19933;-61
2022/10/05 00:24:25;;;;;;;;;;;;;;;;;;5014909;28;20413;-60
2022/10/05 00:26:52;;;;;;;;;;;;;;;;;;5014820;28;19926;-59
2022/10/05 00:29:21;;;;;;;;;;;;;;;;;;5014718;28;19984;-59
2022/10/05 00:31:49;;;;;;;;;;;;;;;;;;5014904;28;19926;-60
2022/10/05 00:34:15;;;;;;;;;;;;;;;;;;5014632;28;19925;-60
2022/10/05 00:36:42;;;;;;;;;;;;;;;;;;5014783;28;19933;-58
2022/10/05 00:39:09;;;;;;;;;;;;;;;;;;5014660;28;20403;-60
2022/10/05 00:41:43;;;;;;;;;;;;;;;;;;5014967;28;19926;-57
2022/10/05 00:44:23;;;;;;;;;;;;;;;;;;5015161;28;19926;-59
2022/10/05 00:46:54;;;;;;;;;;;;;;;;;;5014708;28;19926;-58
2022/10/05 00:49:26;;;;;;;;;;;;;;;;;;5014084;28;19932;-59
2022/10/05 00:51:57;;;;;;;;;;;;;;;;;;5014214;28;19937;-54
2022/10/05 00:54:28;;;;;;;;;;;;;;;;;;5013680;28;19929;-58
2022/10/05 00:57:05;;;;;;;;;;;;;;;;;;5014131;28;19925;-58
2022/10/05 00:59:41;;;;;;;;;;;;;;;;;;5014016;28;19926;-59
2022/10/05 01:02:12;;;;;;;;;;;;;;;;;;5018434;28;19929;-59
2022/10/05 01:04:42;;;;;;;;;;;;;;;;;;5033930;28;19987;-57
2022/10/05 01:07:14;;;;;;;;;;;;;;;;;;5033948;28;19929;-59
2022/10/05 01:09:45;;;;;;;;;;;;;;;;;;5033681;28;19932;-58
2022/10/05 01:12:18;;;;;;;;;;;;;;;;;;5034155;28;19929;-59
2022/10/05 01:14:50;;;;;;;;;;;;;;;;;;5033861;28;19929;-59
2022/10/05 01:17:21;;;;;;;;;;;;;;;;;;5033811;28;19955;-59
2022/10/05 01:19:55;;;;;;;;;;;;;;;;;;5033669;28;19925;-60
2022/10/05 01:22:29;;;;;;;;;;;;;;;;;;5033658;28;19934;-59
2022/10/05 01:25:02;;;;;;;;;;;;;;;;;;5033867;28;19933;-58
2022/10/05 01:27:41;;;;;;;;;;;;;;;;;;5034085;28;19929;-58
2022/10/05 01:30:09;;;;;;;;;;;;;;;;;;5032981;28;19925;-58
2022/10/05 01:32:40;;;;;;;;;;;;;;;;;;5033540;28;19932;-59
2022/10/05 01:35:12;;;;;;;;;;;;;;;;;;5032977;28;19925;-60
2022/10/05 01:37:42;;;;;;;;;;;;;;;;;;5033254;28;19929;-58
2022/10/05 01:40:14;;;;;;;;;;;;;;;;;;5032982;28;20459;-58
2022/10/05 01:42:49;;;;;;;;;;;;;;;;;;5032734;28;20027;-57
2022/10/05 01:45:22;;;;;;;;;;;;;;;;;;5032478;28;19925;-59
2022/10/05 01:47:51;;;;;;;;;;;;;;;;;;5032762;28;19995;-59
2022/10/05 01:50:26;;;;;;;;;;;;;;;;;;5032437;28;20394;-58
2022/10/05 01:52:58;;;;;;;;;;;;;;;;;;5030069;28;19996;-58
2022/10/05 01:55:27;;;;;;;;;;;;;;;;;;5033058;28;20291;-58
2022/10/05 01:58:02;;;;;;;;;;;;;;;;;;5032896;28;19933;-59
2022/10/05 02:00:30;;;;;;;;;;;;;;;;;;5032462;28;19929;-59
2022/10/05 02:02:58;;;;;;;;;;;;;;;;;;5021434;28;20502;-59
2022/10/05 02:05:28;;;;;;;;;;;;;;;;;;5012991;28;19979;-57
2022/10/05 02:07:57;;;;;;;;;;;;;;;;;;5013008;28;19926;-57
2022/10/05 02:10:25;;;;;;;;;;;;;;;;;;5012722;28;19925;-55
2022/10/05 02:12:54;;;;;;;;;;;;;;;;;;5012288;28;19926;-59
2022/10/05 02:15:24;;;;;;;;;;;;;;;;;;5012475;28;19933;-59
2022/10/05 02:17:52;;;;;;;;;;;;;;;;;;5013023;28;19933;-59
2022/10/05 02:20:23;;;;;;;;;;;;;;;;;;5012243;28;19972;-60
2022/10/05 02:22:53;;;;;;;;;;;;;;;;;;5012543;28;19930;-59
2022/10/05 02:25:21;;;;;;;;;;;;;;;;;;5012772;28;19980;-59
2022/10/05 02:27:49;;;;;;;;;;;;;;;;;;5012669;28;19961;-59
2022/10/05 02:30:16;;;;;;;;;;;;;;;;;;5012561;28;19925;-59
2022/10/05 02:32:48;;;;;;;;;;;;;;;;;;5012739;28;19925;-58
2022/10/05 02:35:16;;;;;;;;;;;;;;;;;;5012491;28;19925;-60
2022/10/05 02:37:46;;;;;;;;;;;;;;;;;;5012896;28;19925;-60
2022/10/05 02:40:19;;;;;;;;;;;;;;;;;;5012406;28;19988;-60
2022/10/05 02:42:51;;;;;;;;;;;;;;;;;;5012603;28;19972;-60
2022/10/05 02:45:23;;;;;;;;;;;;;;;;;;5012313;28;19979;-58
2022/10/05 02:47:53;;;;;;;;;;;;;;;;;;5012513;28;19971;-58
2022/10/05 02:50:25;;;;;;;;;;;;;;;;;;5012677;28;19925;-57
2022/10/05 02:52:58;;;;;;;;;;;;;;;;;;5012577;28;20382;-59
2022/10/05 02:55:28;;;;;;;;;;;;;;;;;;5012353;28;19932;-59
2022/10/05 02:57:58;;;;;;;;;;;;;;;;;;5012104;28;19925;-60
2022/10/05 03:00:25;;;;;;;;;;;;;;;;;;5091655;22;19925;-72
2022/10/05 03:02:57;;;;;;;;;;;;;;;;;;5070264;28;19971;-72
2022/10/05 03:05:25;;;;;;;;;;;;;;;;;;5071711;28;20343;-73
2022/10/05 03:07:56;;;;;;;;;;;;;;;;;;5072038;28;19968;-73
2022/10/05 03:10:27;;;;;;;;;;;;;;;;;;5071366;28;19929;-73
2022/10/05 03:12:58;;;;;;;;;;;;;;;;;;5071663;28;19931;-73
2022/10/05 03:15:31;;;;;;;;;;;;;;;;;;5071551;28;19924;-73
2022/10/05 03:18:04;;;;;;;;;;;;;;;;;;5071845;28;19931;-73
2022/10/05 03:20:35;;;;;;;;;;;;;;;;;;5071105;28;20015;-73
2022/10/05 03:23:02;;;;;;;;;;;;;;;;;;5071626;28;20011;-73
2022/10/05 03:25:36;;;;;;;;;;;;;;;;;;5074770;28;20011;-74
2022/10/05 03:28:07;;;;;;;;;;;;;;;;;;5075201;28;20011;-73
2022/10/05 03:30:37;;;;;;;;;;;;;;;;;;5074857;28;20023;-73
2022/10/05 03:33:11;;;;;;;;;;;;;;;;;;5075584;28;20270;-73
2022/10/05 03:35:46;;;;;;;;;;;;;;;;;;5075020;28;20006;-73
2022/10/05 03:38:17;;;;;;;;;;;;;;;;;;5075084;28;19932;-73
2022/10/05 03:40:45;;;;;;;;;;;;;;;;;;5074806;28;20407;-73
2022/10/05 03:43:26;;;;;;;;;;;;;;;;;;5074977;28;19924;-73
2022/10/05 03:45:56;;;;;;;;;;;;;;;;;;5074996;28;20354;-73
2022/10/05 03:48:28;;;;;;;;;;;;;;;;;;5074951;28;20021;-73
2022/10/05 03:50:59;;;;;;;;;;;;;;;;;;5074579;28;19931;-73
2022/10/05 03:53:27;;;;;;;;;;;;;;;;;;5075107;28;20007;-73
2022/10/05 03:55:55;;;;;;;;;;;;;;;;;;5074871;28;19975;-73
2022/10/05 03:58:24;;;;;;;;;;;;;;;;;;5074914;28;19959;-73
2022/10/05 04:00:53;;;;;;;;;;;;;;;;;;5074428;28;20418;-73
2022/10/05 04:03:22;;;;;;;;;;;;;;;;;;5060147;28;20017;-72
2022/10/05 04:05:51;;;;;;;;;;;;;;;;;;5055036;28;20019;-73
2022/10/05 04:08:21;;;;;;;;;;;;;;;;;;5054734;28;19925;-72
2022/10/05 04:10:49;;;;;;;;;;;;;;;;;;5054515;28;19928;-72
2022/10/05 04:13:18;;;;;;;;;;;;;;;;;;5054819;28;19978;-72
2022/10/05 04:15:47;;;;;;;;;;;;;;;;;;5054853;28;19935;-72
2022/10/05 04:18:20;;;;;;;;;;;;;;;;;;5055535;28;19968;-72
2022/10/05 04:20:50;;;;;;;;;;;;;;;;;;5054566;28;20027;-72
2022/10/05 04:23:22;;;;;;;;;;;;;;;;;;5054718;28;19944;-72
2022/10/05 04:25:50;;;;;;;;;;;;;;;;;;5055382;28;19931;-72
2022/10/05 04:28:19;;;;;;;;;;;;;;;;;;5054881;28;20390;-75
2022/10/05 04:30:47;;;;;;;;;;;;;;;;;;5054305;28;19972;-72
2022/10/05 04:33:14;;;;;;;;;;;;;;;;;;5054670;28;19925;-74
2022/10/05 04:35:48;;;;;;;;;;;;;;;;;;5053826;28;20307;-75
2022/10/05 04:38:25;;;;;;;;;;;;;;;;;;5054745;28;19986;-75
2022/10/05 04:40:58;;;;;;;;;;;;;;;;;;5054634;28;20015;-73
2022/10/05 04:43:27;;;;;;;;;;;;;;;;;;5054372;28;19963;-72
2022/10/05 04:46:14;;;;;;;;;;;;;;;;;;5053952;28;20538;-73
2022/10/05 04:48:56;;;;;;;;;;;;;;;;;;5053369;28;19925;-73
2022/10/05 04:51:29;;;;;;;;;;;;;;;;;;5053815;28;20351;-74
2022/10/05 04:54:00;;;;;;;;;;;;;;;;;;5054428;28;19999;-74
2022/10/05 04:56:32;;;;;;;;;;;;;;;;;;5054243;28;19929;-73
2022/10/05 04:59:06;;;;;;;;;;;;;;;;;;5054833;28;20387;-73
2022/10/05 05:01:41;;;;;;;;;;;;;;;;;;5057415;28;20432;-73
2022/10/05 05:04:23;;;;;;;;;;;;;;;;;;5037742;28;20395;-73
2022/10/05 05:06:56;;;;;;;;;;;;;;;;;;5023687;28;19971;-73
2022/10/05 05:09:38;;;;;;;;;;;;;;;;;;5033658;28;19931;-74
2022/10/05 05:12:11;;;;;;;;;;;;;;;;;;5033664;28;20028;-75
2022/10/05 05:14:46;;;;;;;;;;;;;;;;;;5033860;28;20015;-74
2022/10/05 05:17:20;;;;;;;;;;;;;;;;;;5033473;28;19925;-75
2022/10/05 05:19:52;;;;;;;;;;;;;;;;;;5033420;28;20011;-74
2022/10/05 05:22:24;;;;;;;;;;;;;;;;;;5033649;28;20024;-75
2022/10/05 05:24:57;;;;;;;;;;;;;;;;;;5033442;28;20433;-74
2022/10/05 05:27:33;;;;;;;;;;;;;;;;;;5033410;28;20004;-74
2022/10/05 05:30:02;;;;;;;;;;;;;;;;;;5032910;28;20426;-74
2022/10/05 05:32:35;;;;;;;;;;;;;;;;;;5033288;28;19968;-74
2022/10/05 05:35:12;;;;;;;;;;;;;;;;;;5033256;28;19932;-74
2022/10/05 05:37:40;;;;;;;;;;;;;;;;;;5033319;28;19925;-74
2022/10/05 05:40:12;;;;;;;;;;;;;;;;;;5033001;28;20043;-74
2022/10/05 05:42:43;;;;;;;;;;;;;;;;;;5033098;28;19925;-74
2022/10/05 05:45:16;;;;;;;;;;;;;;;;;;5033201;28;19925;-75
2022/10/05 05:47:48;;;;;;;;;;;;;;;;;;5031926;28;19925;-74
2022/10/05 05:50:26;;;;;;;;;;;;;;;;;;5032901;28;20350;-74
2022/10/05 05:52:55;;;;;;;;;;;;;;;;;;5033135;28;19932;-75
2022/10/05 05:55:24;;;;;;;;;;;;;;;;;;5033312;28;19976;-73
2022/10/05 05:57:57;;;;;;;;;;;;;;;;;;5033081;28;19973;-75
2022/10/05 06:00:25;;;;;;;;;;;;;;;;;;5032511;28;19925;-73
2022/10/05 06:02:55;;;;;;;;;;;;;;;;;;5054315;28;20023;-75
2022/10/05 06:05:25;;;;;;;;;;;;;;;;;;5072780;28;19925;-74
2022/10/05 06:07:53;;;;;;;;;;;;;;;;;;5072698;28;19924;-74
2022/10/05 06:10:25;;;;;;;;;;;;;;;;;;5072259;28;20414;-73
2022/10/05 06:12:54;;;;;;;;;;;;;;;;;;5072520;28;19924;-74
2022/10/05 06:15:33;;;;;;;;;;;;;;;;;;5072448;28;19944;-72
2022/10/05 06:18:02;;;;;;;;;;;;;;;;;;5072661;28;19969;-74
2022/10/05 06:20:33;;;;;;;;;;;;;;;;;;5072409;28;20019;-74
2022/10/05 06:23:01;;;;;;;;;;;;;;;;;;5072355;28;19970;-74
2022/10/05 06:25:33;;;;;;;;;;;;;;;;;;5072616;28;19935;-75
2022/10/05 06:28:09;;;;;;;;;;;;;;;;;;5072462;28;19974;-75
2022/10/05 06:30:43;;;;;;;;;;;;;;;;;;5072533;28;19931;-76
2022/10/05 06:33:15;;;;;;;;;;;;;;;;;;5072776;28;19983;-76
2022/10/05 06:35:47;;;;;;;;;;;;;;;;;;5072652;28;20360;-74
2022/10/05 06:38:20;;;;;;;;;;;;;;;;;;5072624;28;19980;-75
2022/10/05 06:40:54;;;;;;;;;;;;;;;;;;5072143;28;20314;-76
2022/10/05 06:43:38;;;;;;;;;;;;;;;;;;5072348;28;19977;-75
2022/10/05 06:46:09;;;;;;;;;;;;;;;;;;5062276;28;19928;-76
2022/10/05 06:48:43;;;;;;;;;;;;;;;;;;5071943;28;20295;-73
2022/10/05 06:51:13;;;;;;;;;;;;;;;;;;5072306;28;19932;-75
2022/10/05 06:53:43;;;;;;;;;;;;;;;;;;5071968;28;20275;-74
2022/10/05 06:56:13;;;;;;;;;;;;;;;;;;5071758;28;20480;-75
2022/10/05 06:58:47;;;;;;;;;;;;;;;;;;5072468;28;19975;-75
2022/10/05 07:01:19;;;;;;;;;;;;;;;;;;5076747;28;19968;-75
2022/10/05 07:03:53;;;;;;;;;;;;;;;;;;5058086;28;19925;-75
2022/10/05 07:06:21;;;;;;;;;;;;;;;;;;5053319;28;20026;-76
2022/10/05 07:08:59;;;;;;;;;;;;;;;;;;5054640;28;20015;-76
2022/10/05 07:11:33;;;;;;;;;;;;;;;;;;5054516;28;20419;-75
2022/10/05 07:14:13;;;;;;;;;;;;;;;;;;5054649;28;19979;-75
2022/10/05 07:16:47;;;;;;;;;;;;;;;;;;5054487;28;20024;-75
2022/10/05 07:19:22;;;;;;;;;;;;;;;;;;5054034;28;19947;-75
2022/10/05 07:21:54;;;;;;;;;;;;;;;;;;5053813;28;19928;-76
2022/10/05 07:24:28;;;;;;;;;;;;;;;;;;5054138;28;20015;-74
2022/10/05 07:26:57;;;;;;;;;;;;;;;;;;5053531;28;20298;-74
2022/10/05 07:29:29;;;;;;;;;;;;;;;;;;5056972;28;20020;-75
2022/10/05 07:32:00;;;;;;;;;;;;;;;;;;5055114;28;19991;-74
2022/10/05 07:34:33;;;;;;;;;;;;;;;;;;5053789;28;19963;-76
2022/10/05 07:39:52;;;;;;;;;;;;;;;;;;5053596;28;19931;-75
2022/10/05 07:42:23;;;;;;;;;;;;;;;;;;5062478;28;19935;-76
2022/10/05 07:44:53;;;;;;;;;;;;;;;;;;5068250;28;20354;-75
2022/10/05 07:47:24;;;;;;;;;;;;;;;;;;5056498;28;19925;-75
2022/10/05 07:49:53;;;;;;;;;;;;;;;;;;5056364;28;19972;-74
2022/10/05 07:52:23;;;;;;;;;;;;;;;;;;5055324;28;20024;-75
2022/10/05 07:54:59;;;;;;;;;;;;;;;;;;5053829;28;19935;-76
2022/10/05 07:57:30;;;;;;;;;;;;;;;;;;5053120;28;20379;-75
2022/10/05 07:59:58;;;;;;;;;;;;;;;;;;5052785;28;19968;-74
2022/10/05 08:02:27;;;;;;;;;;;;;;;;;;5053033;28;20423;-75
2022/10/05 08:04:57;;;;;;;;;;;;;;;;;;5053184;28;20383;-75
2022/10/05 08:07:24;;;;;;;;;;;;;;;;;;5057051;28;19924;-74
2022/10/05 08:09:53;;;;;;;;;;;;;;;;;;5056139;28;19925;-75
2022/10/05 08:12:22;;;;;;;;;;;;;;;;;;5052813;28;20007;-74
2022/10/05 08:14:52;;;;;;;;;;;;;;;;;;5052970;28;19933;-75
2022/10/05 08:17:23;;;;;;;;;;;;;;;;;;5052915;28;20287;-74
2022/10/05 08:19:55;;;;;;;;;;;;;;;;;;5052319;28;19975;-75
2022/10/05 08:22:24;;;;;;;;;;;;;;;;;;5052761;28;19935;-75
2022/10/05 08:24:55;;;;;;;;;;;;;;;;;;5053017;28;20483;-74
2022/10/05 08:27:25;;;;;;;;;;;;;;;;;;5052668;28;19925;-75
2022/10/05 08:29:55;;;;;;;;;;;;;;;;;;5052610;28;20354;-76
2022/10/05 08:32:23;;;;;;;;;;;;;;;;;;5052391;28;19929;-75
2022/10/05 08:34:52;;;;;;;;;;;;;;;;;;5052621;28;20369;-75
2022/10/05 08:37:21;;;;;;;;;;;;;;;;;;5052778;28;20019;-75
2022/10/05 08:39:51;;;;;;;;;;;;;;;;;;5052292;28;19968;-75
2022/10/05 08:42:35;;;;;;;;;;;;;;;;;;5052308;28;20015;-75
2022/10/05 08:45:19;;;;;;;;;;;;;;;;;;5053390;28;19929;-77
2022/10/05 08:48:03;;;;;;;;;;;;;;;;;;5052810;28;19928;-78
2022/10/05 08:50:35;;;;;;;;;;;;;;;;;;5040996;28;20298;-75
2022/10/05 08:53:16;;;;;;;;;;;;;;;;;;5051849;28;19931;-75
2022/10/05 08:55:54;;;;;;;;;;;;;;;;;;5051753;28;20023;-75
2022/10/05 08:58:45;;;;;;;;;;;;;;;;;;5051866;28;20036;-75
2022/10/05 09:01:16;;;;;;;;;;;;;;;;;;5076374;22;19970;-79
2022/10/05 09:04:01;;;;;;;;;;;;;;;;;;5073808;28;20007;-79
2022/10/05 09:07:01;;;;;;;;;;;;;;;;;;5074307;28;19925;-78
2022/10/05 09:09:42;;;;;;;;;;;;;;;;;;5072999;28;19925;-78
2022/10/05 09:12:27;;;;;;;;;;;;;;;;;;5027478;28;19932;-78
2022/10/05 09:15:06;;;;;;;;;;;;;;;;;;5071420;28;20529;-78
2022/10/05 09:17:41;;;;;;;;;;;;;;;;;;5071565;28;19928;-78
2022/10/05 09:20:17;;;;;;;;;;;;;;;;;;5071173;28;19930;-78
2022/10/05 09:22:56;;;;;;;;;;;;;;;;;;5071420;28;19950;-78
2022/10/05 09:25:25;;;;;;;;;;;;;;;;;;5067929;28;20011;-77
2022/10/05 09:27:54;;;;;;;;;;;;;;;;;;5057431;28;20012;-78
2022/10/05 09:30:34;;;;;;;;;;;;;;;;;;5057275;28;20492;-78
2022/10/05 09:33:22;;;;;;;;;;;;;;;;;;5060057;28;19931;-79
2022/10/05 09:35:58;;;;;;;;;;;;;;;;;;5059555;28;20019;-77
2022/10/05 09:38:29;;;;;;;;;;;;;;;;;;5065919;28;19959;-79
2022/10/05 09:41:21;;;;;;;;;;;;;;;;;;5061641;28;19992;-77
2022/10/05 09:44:14;;;;;;;;;;;;;;;;;;5060869;28;20032;-77
2022/10/05 09:46:51;;;;;;;;;;;;;;;;;;5013949;28;19925;-79
2022/10/05 09:49:38;;;;;;;;;;;;;;;;;;5051882;28;19937;-77
2022/10/05 09:52:16;;;;;;;;;;;;;;;;;;5017042;28;20016;-78
2022/10/05 09:55:01;;;;;;;;;;;;;;;;;;5051405;28;19931;-79
2022/10/05 09:57:41;;;;;;;;;;;;;;;;;;5051329;28;19931;-79
2022/10/05 10:00:20;;;;;;;;;;;;;;;;;;5053536;28;19925;-78
2022/10/05 10:03:04;;;;;;;;;;;;;;;;;;5063299;28;19931;-79
2022/10/05 10:05:51;;;;;;;;;;;;;;;;;;5072132;28;19987;-78
2022/10/05 10:08:24;;;;;;;;;;;;;;;;;;5078175;28;19971;-79
2022/10/05 10:11:00;;;;;;;;;;;;;;;;;;5069163;28;19924;-78
2022/10/05 10:13:44;;;;;;;;;;;;;;;;;;5075140;28;20085;-79
2022/10/05 10:16:13;;;;;;;;;;;;;;;;;;5076168;28;19931;-78
2022/10/05 10:18:55;;;;;;;;;;;;;;;;;;5080629;28;19964;-78
2022/10/05 10:21:36;;;;;;;;;;;;;;;;;;5087174;28;19925;-79
2022/10/05 10:24:13;;;;;;;;;;;;;;;;;;5071913;28;20020;-79
2022/10/05 10:27:03;;;;;;;;;;;;;;;;;;5072796;28;20013;-79
2022/10/05 10:29:41;;;;;;;;;;;;;;;;;;5052628;28;20019;-79
2022/10/05 10:32:12;;;;;;;;;;;;;;;;;;5073446;28;20422;-77
2022/10/05 10:35:08;;;;;;;;;;;;;;;;;;5071937;28;19963;-79
2022/10/05 10:37:38;;;;;;;;;;;;;;;;;;4990374;28;20384;-77
2022/10/05 10:40:22;;;;;;;;;;;;;;;;;;5053037;28;20399;-79
2022/10/05 10:42:55;;;;;;;;;;;;;;;;;;5070721;28;19931;-78
2022/10/05 10:45:35;;;;;;;;;;;;;;;;;;5070190;28;20391;-77
2022/10/05 10:48:03;;;;;;;;;;;;;;;;;;5070669;28;19978;-78
2022/10/05 10:50:48;;;;;;;;;;;;;;;;;;5069828;28;19978;-78
2022/10/05 10:53:33;;;;;;;;;;;;;;;;;;5076420;28;20015;-77
2022/10/05 10:56:08;;;;;;;;;;;;;;;;;;5089974;28;19928;-78
2022/10/05 10:58:51;;;;;;;;;;;;;;;;;;5090002;28;19931;-78
2022/10/05 11:01:27;;;;;;;;;;;;;;;;;;5090268;28;19971;-78
2022/10/05 11:04:03;;;;;;;;;;;;;;;;;;5071245;28;19931;-78
2022/10/05 11:06:37;;;;;;;;;;;;;;;;;;5070134;28;19935;-78
2022/10/05 11:09:22;;;;;;;;;;;;;;;;;;5070957;28;19968;-78
2022/10/05 11:12:09;;;;;;;;;;;;;;;;;;5071689;28;19924;-79
2022/10/05 11:15:03;;;;;;;;;;;;;;;;;;5070326;28;20015;-77
2022/10/05 11:17:48;;;;;;;;;;;;;;;;;;5070066;28;19932;-77
2022/10/05 11:20:20;;;;;;;;;;;;;;;;;;5069904;28;20614;-77
2022/10/05 11:23:04;;;;;;;;;;;;;;;;;;5070482;28;20019;-77
2022/10/05 11:25:50;;;;;;;;;;;;;;;;;;5069723;28;19951;-76
2022/10/05 11:28:34;;;;;;;;;;;;;;;;;;5070137;28;19968;-79
2022/10/05 11:31:30;;;;;;;;;;;;;;;;;;5070266;28;19924;-77
2022/10/05 11:34:16;;;;;;;;;;;;;;;;;;4987835;28;19956;-77
2022/10/05 11:37:00;;;;;;;;;;;;;;;;;;5060534;28;19924;-78
2022/10/05 11:39:37;;;;;;;;;;;;;;;;;;5068687;28;19928;-78
2022/10/05 11:42:15;;;;;;;;;;;;;;;;;;5069581;28;20023;-78
2022/10/05 11:44:56;;;;;;;;;;;;;;;;;;5070482;28;20345;-78
2022/10/05 11:47:24;;;;;;;;;;;;;;;;;;5073289;28;20406;-78
2022/10/05 11:49:58;;;;;;;;;;;;;;;;;;5072733;28;20329;-77
2022/10/05 11:52:27;;;;;;;;;;;;;;;;;;5072964;28;19932;-78
2022/10/05 11:54:59;;;;;;;;;;;;;;;;;;5073637;28;20486;-78
2022/10/05 11:57:29;;;;;;;;;;;;;;;;;;5073452;28;19924;-78
2022/10/05 11:59:58;;;;;;;;;;;;;;;;;;5072788;28;19964;-78
2022/10/05 12:02:40;;;;;;;;;;;;;;;;;;5066978;28;20020;-77
2022/10/05 12:05:10;;;;;;;;;;;;;;;;;;5061198;28;20015;-76
2022/10/05 12:07:41;;;;;;;;;;;;;;;;;;5055704;28;20015;-77
2022/10/05 12:10:18;;;;;;;;;;;;;;;;;;5053696;28;19924;-78
2022/10/05 12:13:06;;;;;;;;;;;;;;;;;;5053734;28;19929;-78
2022/10/05 12:15:37;;;;;;;;;;;;;;;;;;5046528;28;20277;-77
2022/10/05 12:18:07;;;;;;;;;;;;;;;;;;5053292;28;19931;-79
2022/10/05 12:20:38;;;;;;;;;;;;;;;;;;5052523;28;19947;-78
2022/10/05 12:23:10;;;;;;;;;;;;;;;;;;5053361;28;19925;-78
2022/10/05 12:25:39;;;;;;;;;;;;;;;;;;5053344;28;19925;-78
2022/10/05 12:28:09;;;;;;;;;;;;;;;;;;5053766;28;19948;-77
2022/10/05 12:30:52;;;;;;;;;;;;;;;;;;5052926;28;20498;-78
2022/10/05 12:33:20;;;;;;;;;;;;;;;;;;5053614;28;19970;-79
2022/10/05 12:35:50;;;;;;;;;;;;;;;;;;5052967;28;19940;-78
2022/10/05 12:38:23;;;;;;;;;;;;;;;;;;5053240;28;19924;-79
2022/10/05 12:40:54;;;;;;;;;;;;;;;;;;5054440;28;19929;-78
2022/10/05 12:43:25;;;;;;;;;;;;;;;;;;5053080;28;19925;-78
2022/10/05 12:45:56;;;;;;;;;;;;;;;;;;5052641;28;19925;-78
2022/10/05 12:48:36;;;;;;;;;;;;;;;;;;5051870;28;20717;-78
2022/10/05 12:51:11;;;;;;;;;;;;;;;;;;5053048;28;19968;-78
2022/10/05 12:53:47;;;;;;;;;;;;;;;;;;5053491;28;20387;-76
2022/10/05 12:56:20;;;;;;;;;;;;;;;;;;5052791;28;19929;-80
2022/10/05 12:58:51;;;;;;;;;;;;;;;;;;5052619;28;19932;-77
2022/10/05 13:01:23;;;;;;;;;;;;;;;;;;5052703;28;19929;-79
2022/10/05 13:03:53;;;;;;;;;;;;;;;;;;5071574;28;20363;-78
2022/10/05 13:06:26;;;;;;;;;;;;;;;;;;5073093;28;20011;-78
2022/10/05 13:08:56;;;;;;;;;;;;;;;;;;5072537;28;19931;-78
2022/10/05 13:11:27;;;;;;;;;;;;;;;;;;5072279;28;19924;-78
2022/10/05 13:14:01;;;;;;;;;;;;;;;;;;5072445;28;20003;-77
2022/10/05 13:16:33;;;;;;;;;;;;;;;;;;5071911;28;19936;-78
2022/10/05 13:19:06;;;;;;;;;;;;;;;;;;5071594;28;19924;-77
2022/10/05 13:21:38;;;;;;;;;;;;;;;;;;5071179;28;19952;-77
2022/10/05 13:24:11;;;;;;;;;;;;;;;;;;5072644;28;20011;-77
2022/10/05 13:26:39;;;;;;;;;;;;;;;;;;5071456;28;20015;-77
2022/10/05 13:29:11;;;;;;;;;;;;;;;;;;5071281;28;19988;-76
2022/10/05 13:31:41;;;;;;;;;;;;;;;;;;5070867;28;20018;-78
2022/10/05 13:34:14;;;;;;;;;;;;;;;;;;5071071;28;20014;-78
2022/10/05 13:36:47;;;;;;;;;;;;;;;;;;5071847;28;19925;-77
2022/10/05 13:39:29;;;;;;;;;;;;;;;;;;5071375;28;19931;-77
2022/10/05 13:41:59;;;;;;;;;;;;;;;;;;5070868;28;20599;-79
2022/10/05 13:44:29;;;;;;;;;;;;;;;;;;5072383;28;19924;-77
2022/10/05 13:47:00;;;;;;;;;;;;;;;;;;5074930;28;19932;-78
2022/10/05 13:49:32;;;;;;;;;;;;;;;;;;5071145;28;19924;-78
2022/10/05 13:52:07;;;;;;;;;;;;;;;;;;5075114;28;19986;-79
2022/10/05 13:54:37;;;;;;;;;;;;;;;;;;5075517;28;19986;-79
2022/10/05 13:57:10;;;;;;;;;;;;;;;;;;5074030;28;20529;-78
2022/10/05 13:59:40;;;;;;;;;;;;;;;;;;5071139;28;20007;-78
2022/10/05 14:02:08;;;;;;;;;;;;;;;;;;5067202;28;20002;-77
2022/10/05 14:04:43;;;;;;;;;;;;;;;;;;5052476;28;19983;-79
2022/10/05 14:07:20;;;;;;;;;;;;;;;;;;5055618;28;19924;-79
2022/10/05 14:09:47;;;;;;;;;;;;;;;;;;5056250;28;20173;-78
2022/10/05 14:12:18;;;;;;;;;;;;;;;;;;5056336;28;20588;-79
2022/10/05 14:14:49;;;;;;;;;;;;;;;;;;5053455;28;19979;-78
2022/10/05 14:17:16;;;;;;;;;;;;;;;;;;5052173;28;20027;-78
2022/10/05 14:19:44;;;;;;;;;;;;;;;;;;5053089;28;20540;-78
2022/10/05 14:22:12;;;;;;;;;;;;;;;;;;5053882;28;19971;-78
2022/10/05 14:24:47;;;;;;;;;;;;;;;;;;5053919;28;20027;-78
2022/10/05 14:27:24;;;;;;;;;;;;;;;;;;5055179;28;19975;-78
2022/10/05 14:29:58;;;;;;;;;;;;;;;;;;5050913;28;19924;-77
2022/10/05 14:32:26;;;;;;;;;;;;;;;;;;5052013;28;20574;-78
2022/10/05 14:35:00;;;;;;;;;;;;;;;;;;5054148;28;19932;-78
2022/10/05 14:37:31;;;;;;;;;;;;;;;;;;5053949;28;19949;-77
2022/10/05 14:40:01;;;;;;;;;;;;;;;;;;5053969;28;20040;-78
2022/10/05 14:42:30;;;;;;;;;;;;;;;;;;5052034;28;19925;-78
2022/10/05 14:44:58;;;;;;;;;;;;;;;;;;5050939;28;19925;-79
2022/10/05 14:47:27;;;;;;;;;;;;;;;;;;5051537;28;20371;-78
2022/10/05 14:50:09;;;;;;;;;;;;;;;;;;5067562;28;19960;-77
2022/10/05 14:52:37;;;;;;;;;;;;;;;;;;5077870;28;19975;-77
2022/10/05 14:55:10;;;;;;;;;;;;;;;;;;5072204;28;19977;-78
2022/10/05 14:57:39;;;;;;;;;;;;;;;;;;5075547;28;19972;-78
2022/10/05 15:00:15;;;;;;;;;;;;;;;;;;5072715;28;19925;-78
2022/10/05 15:03:08;;;;;;;;;;;;;;;;;;5073157;28;19925;-77
2022/10/05 15:05:37;;;;;;;;;;;;;;;;;;5027342;28;19948;-79
2022/10/05 15:08:13;;;;;;;;;;;;;;;;;;5082590;28;19925;-77
2022/10/05 15:10:42;;;;;;;;;;;;;;;;;;5072101;28;20310;-79
2022/10/05 15:13:13;;;;;;;;;;;;;;;;;;5072957;28;19936;-78
2022/10/05 15:15:43;;;;;;;;;;;;;;;;;;5074482;28;19955;-77
2022/10/05 15:18:14;;;;;;;;;;;;;;;;;;5075060;28;19992;-78
2022/10/05 15:20:45;;;;;;;;;;;;;;;;;;5074753;28;19924;-77
2022/10/05 15:23:23;;;;;;;;;;;;;;;;;;5081277;28;19925;-79
2022/10/05 15:25:56;;;;;;;;;;;;;;;;;;5081047;28;19925;-78
2022/10/05 15:28:29;;;;;;;;;;;;;;;;;;5075923;28;19984;-77
2022/10/05 15:31:00;;;;;;;;;;;;;;;;;;5076225;28;20315;-78
2022/10/05 15:33:29;;;;;;;;;;;;;;;;;;5083966;28;19924;-77
2022/10/05 15:36:09;;;;;;;;;;;;;;;;;;5074967;28;19996;-77
2022/10/05 15:38:39;;;;;;;;;;;;;;;;;;5074968;28;20371;-78
2022/10/05 15:41:09;;;;;;;;;;;;;;;;;;5074260;28;19978;-78
2022/10/05 15:43:45;;;;;;;;;;;;;;;;;;5076397;28;20019;-78
2022/10/05 15:46:15;;;;;;;;;;;;;;;;;;5074834;28;20396;-78
2022/10/05 15:48:45;;;;;;;;;;;;;;;;;;5074686;28;19959;-78
2022/10/05 15:51:16;;;;;;;;;;;;;;;;;;5075075;28;19971;-78
2022/10/05 15:53:43;;;;;;;;;;;;;;;;;;5076955;28;19960;-78
2022/10/05 15:56:15;;;;;;;;;;;;;;;;;;5076060;28;20369;-77
2022/10/05 15:58:46;;;;;;;;;;;;;;;;;;5074359;28;20027;-78
2022/10/05 16:01:16;;;;;;;;;;;;;;;;;;5075960;28;20011;-78
2022/10/05 16:03:46;;;;;;;;;;;;;;;;;;5076959;28;19943;-78
2022/10/05 16:09:05;;;;;;;;;;;;;;;;;;5089979;28;19932;-79
2022/10/05 16:11:40;;;;;;;;;;;;;;;;;;5078067;28;19924;-78
2022/10/05 16:14:17;;;;;;;;;;;;;;;;;;5080114;28;20015;-78
2022/10/05 16:16:49;;;;;;;;;;;;;;;;;;5082069;28;19931;-78
2022/10/05 16:19:19;;;;;;;;;;;;;;;;;;5084356;28;20366;-78
2022/10/05 16:21:51;;;;;;;;;;;;;;;;;;5077242;28;19928;-77
2022/10/05 16:24:21;;;;;;;;;;;;;;;;;;5076107;28;19925;-78
2022/10/05 16:26:56;;;;;;;;;;;;;;;;;;5075400;28;19924;-78
2022/10/05 16:29:27;;;;;;;;;;;;;;;;;;5078327;22;20377;-62
2022/10/05 16:31:56;;;;;;;;;;;;;;;;;;5033008;28;20386;-62
2022/10/05 16:34:30;;;;;;;;;;;;;;;;;;5033515;28;20382;-63
2022/10/05 16:36:59;;;;;;;;;;;;;;;;;;5033321;28;19933;-63
2022/10/05 16:39:38;;;;;;;;;;;;;;;;;;5033010;28;19929;-62
2022/10/05 16:42:12;;;;;;;;;;;;;;;;;;5033933;28;20345;-62
2022/10/05 16:44:43;;;;;;;;;;;;;;;;;;5033343;28;19925;-63
2022/10/05 16:47:25;;;;;;;;;;;;;;;;;;5033601;28;20412;-63
2022/10/05 16:49:56;;;;;;;;;;;;;;;;;;5033597;28;19929;-63
2022/10/05 16:52:25;;;;;;;;;;;;;;;;;;5033192;28;19925;-63
2022/10/05 16:54:53;;;;;;;;;;;;;;;;;;5033196;28;20432;-63
2022/10/05 16:57:23;;;;;;;;;;;;;;;;;;5032939;28;19926;-63
2022/10/05 17:00:07;;;;;;;;;;;;;;;;;;5032595;28;20134;-63
2022/10/05 17:02:52;;;;;;;;;;;;;;;;;;5032809;28;19925;-63
2022/10/05 17:05:27;;;;;;;;;;;;;;;;;;5032557;28;19979;-61
2022/10/05 17:07:58;;;;;;;;;;;;;;;;;;5032648;28;20389;-62
2022/10/05 17:10:36;;;;;;;;;;;;;;;;;;5032698;28;19926;-61
2022/10/05 17:13:12;;;;;;;;;;;;;;;;;;5033107;28;19925;-62
2022/10/05 17:15:41;;;;;;;;;;;;;;;;;;5033097;28;19932;-63
2022/10/05 17:18:26;;;;;;;;;;;;;;;;;;5032911;28;20286;-62
2022/10/05 17:20:57;;;;;;;;;;;;;;;;;;5032346;28;19925;-61
2022/10/05 17:23:39;;;;;;;;;;;;;;;;;;5032415;28;19925;-63
2022/10/05 17:26:16;;;;;;;;;;;;;;;;;;5033356;28;19990;-63
2022/10/05 17:28:58;;;;;;;;;;;;;;;;;;5032488;28;19925;-63
2022/10/05 17:31:25;;;;;;;;;;;;;;;;;;5032624;28;19932;-62
2022/10/05 17:34:12;;;;;;;;;;;;;;;;;;5032258;28;19987;-61